Time;durP1;ratioP1;P1;durP2;ratioP2;P2;SDS_P1;SDS_P2;PMS_P1;PMS_P2;Temp;Humidity;BMP_temperature;BMP_pressure;BME280_temperature;BME280_humidity;BME280_pressure;Samples;Min_cycle;Max_cycle;Signal;HPM_P1;HPM_P2
2020/12/28 11:07:48;;;;;;;0.05;0.00;;;17.40;46.90;;;;;;5222035;23;20062;-51
2020/12/28 11:10:15;;;;;;;2.60;0.10;;;17.40;46.90;;;;;;4833803;29;20057;-50
2020/12/28 11:12:42;;;;;;;2.20;0.10;;;17.50;47.10;;;;;;4854492;29;20083;-50
2020/12/28 11:15:09;;;;;;;0.32;0.00;;;17.50;47.30;;;;;;4853051;29;20534;-60
2020/12/28 11:17:36;;;;;;;5.80;0.10;;;17.50;47.60;;;;;;4853446;29;20053;-53
2020/12/28 11:20:03;;;;;;;16.95;0.52;;;17.50;47.60;;;;;;4854320;29;20136;-54
2020/12/28 11:22:29;;;;;;;15.80;0.85;;;17.50;47.80;;;;;;4851590;29;20684;-53
2020/12/28 11:24:57;;;;;;;6.85;0.10;;;17.50;47.90;;;;;;4857837;29;20109;-53
2020/12/28 11:27:23;;;;;;;6.65;0.10;;;17.50;47.90;;;;;;4852882;29;20418;-57
2020/12/28 11:29:50;;;;;;;7.45;0.20;;;17.50;48.20;;;;;;4855213;29;20045;-54
2020/12/28 11:32:17;;;;;;;7.05;0.63;;;17.60;48.20;;;;;;4858002;29;20599;-52
2020/12/28 11:34:43;;;;;;;9.77;0.95;;;17.50;48.20;;;;;;4849311;29;20042;-54
2020/12/28 11:37:10;;;;;;;12.73;1.55;;;17.60;48.40;;;;;;4860887;29;20136;-52
2020/12/28 11:39:37;;;;;;;9.35;0.38;;;17.60;48.60;;;;;;4856460;29;20053;-52
2020/12/28 11:42:05;;;;;;;3.58;0.25;;;17.60;49.10;;;;;;4862305;29;20516;-52
2020/12/28 11:44:31;;;;;;;5.68;1.00;;;17.60;48.90;;;;;;4868893;29;20049;-50
2020/12/28 11:46:58;;;;;;;8.02;1.55;;;17.60;49.10;;;;;;4856681;29;20129;-50
2020/12/28 11:49:25;;;;;;;9.73;1.00;;;17.60;49.30;;;;;;4855378;29;20422;-53
2020/12/28 11:51:54;;;;;;;4.55;0.77;;;17.70;49.60;;;;;;4857208;29;20041;-51
2020/12/28 11:54:21;;;;;;;7.00;0.60;;;17.60;49.70;;;;;;4863078;29;20057;-54
2020/12/28 11:56:47;;;;;;;8.48;0.93;;;17.60;49.40;;;;;;4867291;29;20084;-52
2020/12/28 11:59:15;;;;;;;10.07;0.80;;;17.70;48.80;;;;;;4864309;29;20062;-55
2020/12/28 12:01:47;;;;;;;4.47;1.25;;;17.70;48.50;;;;;;4859026;29;20069;-50
2020/12/28 12:04:13;;;;;;;10.07;1.65;;;17.70;48.20;;;;;;4862380;29;20037;-52
2020/12/28 12:06:40;;;;;;;11.50;2.25;;;17.70;48.50;;;;;;4860898;29;20636;-51
2020/12/28 12:09:14;;;;;;;9.48;3.35;;;17.70;48.30;;;;;;4857243;29;20064;-48
2020/12/28 12:11:45;;;;;;;9.85;2.97;;;17.70;48.50;;;;;;4860870;29;20061;-49
2020/12/28 12:14:13;;;;;;;9.48;3.15;;;17.70;48.30;;;;;;4865139;29;20480;-52
2020/12/28 12:16:41;;;;;;;10.27;3.15;;;17.70;48.40;;;;;;4860654;29;20113;-49
2020/12/28 12:19:08;;;;;;;8.60;3.25;;;17.80;48.40;;;;;;4856369;29;20088;-50
2020/12/28 12:21:34;;;;;;;10.75;4.10;;;17.80;48.40;;;;;;4854335;29;20045;-52
2020/12/28 12:24:01;;;;;;;20.33;5.65;;;17.80;48.40;;;;;;4861881;29;20411;-51
2020/12/28 12:26:28;;;;;;;12.82;4.72;;;17.80;48.40;;;;;;4862339;29;20505;-50
2020/12/28 12:28:55;;;;;;;15.77;5.65;;;17.80;48.30;;;;;;4839931;29;20061;-52
2020/12/28 12:31:22;;;;;;;14.88;6.03;;;17.80;48.50;;;;;;4860815;29;20513;-50
2020/12/28 12:33:49;;;;;;;20.70;6.85;;;17.80;48.60;;;;;;4853727;29;20069;-53
2020/12/28 12:36:16;;;;;;;13.38;5.60;;;17.80;48.60;;;;;;4857879;29;20041;-52
2020/12/28 12:38:43;;;;;;;20.17;6.00;;;17.80;48.70;;;;;;4861772;29;20144;-54
2020/12/28 12:41:16;;;;;;;11.35;5.75;;;17.80;48.60;;;;;;4863096;29;20061;-49
2020/12/28 12:43:43;;;;;;;18.88;6.88;;;17.80;48.50;;;;;;4860354;29;20096;-50
2020/12/28 12:46:10;;;;;;;14.27;5.00;;;17.80;48.60;;;;;;4859317;29;20049;-49
2020/12/28 12:48:39;;;;;;;20.35;7.30;;;17.80;48.50;;;;;;4857488;29;20540;-52
2020/12/28 12:51:07;;;;;;;18.17;5.68;;;17.80;48.70;;;;;;4855694;29;20145;-48
2020/12/28 12:53:34;;;;;;;13.63;5.88;;;17.80;48.80;;;;;;4860236;29;20105;-50
2020/12/28 12:56:01;;;;;;;13.45;4.60;;;17.80;48.60;;;;;;4860296;29;20064;-49
2020/12/28 12:58:27;;;;;;;12.40;5.95;;;17.80;48.60;;;;;;4857126;29;20430;-48
2020/12/28 13:00:55;;;;;;;14.25;6.05;;;17.80;48.50;;;;;;4856674;29;20049;-52
2020/12/28 13:03:22;;;;;;;18.98;7.47;;;17.80;48.70;;;;;;4857432;29;20403;-50
2020/12/28 13:05:48;;;;;;;10.98;5.93;;;17.80;48.90;;;;;;4859098;29;20056;-50
2020/12/28 13:08:16;;;;;;;12.57;6.03;;;17.80;48.90;;;;;;4857094;29;20065;-51
2020/12/28 13:10:44;;;;;;;8.80;5.88;;;17.80;48.90;;;;;;4858900;29;20045;-50
2020/12/28 13:13:10;;;;;;;12.45;5.28;;;17.80;48.90;;;;;;4861143;29;20049;-50
2020/12/28 13:15:37;;;;;;;7.68;5.03;;;17.80;48.80;;;;;;4859550;29;20127;-51
2020/12/28 13:18:04;;;;;;;13.82;5.95;;;17.80;48.70;;;;;;4855590;29;20062;-50
2020/12/28 13:20:30;;;;;;;14.30;6.85;;;17.80;48.80;;;;;;4855005;29;20057;-50
2020/12/28 13:22:57;;;;;;;16.35;6.18;;;17.80;48.90;;;;;;4860054;29;20057;-53
2020/12/28 13:25:25;;;;;;;22.80;5.03;;;17.80;49.20;;;;;;4859749;29;20049;-61
2020/12/28 13:27:52;;;;;;;18.42;5.43;;;17.80;49.30;;;;;;4839651;29;20057;-57
2020/12/28 13:30:19;;;;;;;25.67;5.55;;;17.80;49.50;;;;;;4858646;29;20054;-60
2020/12/28 13:32:46;;;;;;;35.70;5.82;;;17.80;49.80;;;;;;4862408;29;20049;-56
2020/12/28 13:35:13;;;;;;;26.35;6.00;;;17.80;50.20;;;;;;4860531;29;20046;-56
2020/12/28 13:37:40;;;;;;;18.92;5.15;;;17.80;50.40;;;;;;4842750;29;20120;-56
2020/12/28 13:40:06;;;;;;;15.85;5.10;;;17.80;50.20;;;;;;4853074;29;20502;-56
2020/12/28 13:42:34;;;;;;;28.23;5.10;;;17.90;50.40;;;;;;4852261;29;20052;-56
2020/12/28 13:45:01;;;;;;;18.63;4.35;;;17.90;50.30;;;;;;4850326;29;20060;-58
2020/12/28 13:47:28;;;;;;;20.98;5.47;;;17.90;50.10;;;;;;4857516;29;20049;-56
2020/12/28 13:49:55;;;;;;;12.82;4.90;;;17.90;50.20;;;;;;4853942;29;20053;-57
2020/12/28 13:52:22;;;;;;;18.20;4.57;;;17.90;50.20;;;;;;4852449;29;20049;-57
2020/12/28 13:54:48;;;;;;;12.80;3.97;;;17.90;50.30;;;;;;4850836;29;20087;-56
2020/12/28 13:57:15;;;;;;;9.73;3.28;;;17.90;50.30;;;;;;4853858;29;20060;-56
2020/12/28 13:59:42;;;;;;;3.55;1.40;;;17.90;50.20;;;;;;4854313;29;20056;-54
2020/12/28 14:02:11;;;;;;;10.27;3.25;;;17.90;49.30;;;;;;4834135;29;20073;-53
2020/12/28 14:04:38;;;;;;;14.07;3.42;;;17.90;49.60;;;;;;4856676;29;20083;-54
2020/12/28 14:07:04;;;;;;;15.20;3.67;;;17.90;49.80;;;;;;4854292;29;20072;-52
2020/12/28 14:09:32;;;;;;;14.60;3.90;;;17.90;49.80;;;;;;4852036;29;20100;-53
2020/12/28 14:11:58;;;;;;;14.65;4.20;;;17.90;49.80;;;;;;4858571;29;20117;-55
2020/12/28 14:14:27;;;;;;;8.15;2.40;;;17.90;49.90;;;;;;4862674;29;20545;-55
2020/12/28 14:16:55;;;;;;;12.68;2.88;;;17.90;49.90;;;;;;4859036;29;20458;-57
2020/12/28 14:19:22;;;;;;;10.10;3.78;;;17.90;49.90;;;;;;4857441;29;20152;-59
2020/12/28 14:21:48;;;;;;;16.58;3.03;;;17.90;49.90;;;;;;4854025;29;20148;-56
2020/12/28 14:24:15;;;;;;;7.57;2.47;;;17.90;50.00;;;;;;4861636;29;20098;-56
2020/12/28 14:26:42;;;;;;;11.68;2.17;;;17.90;50.00;;;;;;4855720;29;20403;-54
2020/12/28 14:29:09;;;;;;;6.28;2.05;;;17.90;50.00;;;;;;4862708;29;20053;-56
2020/12/28 14:31:35;;;;;;;5.53;2.45;;;17.90;50.00;;;;;;4855134;29;20407;-56
2020/12/28 14:34:04;;;;;;;6.38;2.67;;;17.90;50.10;;;;;;4855656;29;20053;-55
2020/12/28 14:36:30;;;;;;;5.82;3.00;;;17.90;50.10;;;;;;4855588;29;20046;-55
2020/12/28 14:38:57;;;;;;;11.55;3.25;;;18.00;50.30;;;;;;4857049;29;20057;-56
2020/12/28 14:41:23;;;;;;;11.52;2.55;;;17.90;50.20;;;;;;4857464;29;20057;-57
2020/12/28 14:43:50;;;;;;;8.55;1.98;;;18.00;50.30;;;;;;4855502;29;20045;-58
2020/12/28 14:46:17;;;;;;;10.93;3.22;;;18.00;50.30;;;;;;4857450;29;20141;-57
2020/12/28 14:48:44;;;;;;;8.95;3.05;;;18.00;50.40;;;;;;4857860;29;20038;-56
2020/12/28 14:51:12;;;;;;;10.90;2.35;;;18.00;50.40;;;;;;4839519;29;20045;-57
2020/12/28 14:53:44;;;;;;;6.32;2.03;;;18.00;50.40;;;;;;4858517;29;20057;-56
2020/12/28 14:56:15;;;;;;;5.85;3.00;;;18.00;50.40;;;;;;4841838;29;20513;-56
2020/12/28 14:58:42;;;;;;;3.50;1.88;;;18.00;50.40;;;;;;4855101;29;20054;-56
2020/12/28 15:01:08;;;;;;;12.55;2.80;;;18.00;50.40;;;;;;4855863;29;20055;-56
2020/12/28 15:03:35;;;;;;;11.57;1.90;;;18.00;50.40;;;;;;4856223;29;20053;-55
2020/12/28 15:06:02;;;;;;;4.60;3.00;;;18.00;50.50;;;;;;4856674;29;20050;-55
2020/12/28 15:08:29;;;;;;;9.02;2.08;;;18.00;50.60;;;;;;4859689;29;20054;-57
2020/12/28 15:10:56;;;;;;;7.68;1.10;;;18.00;50.50;;;;;;4854743;29;20049;-55
2020/12/28 15:13:23;;;;;;;4.65;1.67;;;18.00;50.50;;;;;;4838729;29;20119;-55
2020/12/28 15:15:50;;;;;;;6.90;2.13;;;18.00;50.40;;;;;;4855080;29;20536;-56
2020/12/28 15:18:16;;;;;;;4.13;1.48;;;18.00;50.30;;;;;;4855583;29;20092;-56
2020/12/28 15:20:43;;;;;;;7.88;2.47;;;18.00;50.30;;;;;;4856111;29;20053;-56
2020/12/28 15:23:10;;;;;;;7.95;2.50;;;18.00;50.30;;;;;;4855494;29;20057;-56
2020/12/28 15:25:37;;;;;;;3.13;1.63;;;18.00;50.30;;;;;;4855575;29;20056;-56
2020/12/28 15:28:04;;;;;;;5.35;1.73;;;18.00;50.30;;;;;;4855678;29;20462;-55
2020/12/28 15:30:30;;;;;;;5.68;1.40;;;18.00;50.20;;;;;;4855475;29;20573;-56
2020/12/28 15:32:57;;;;;;;5.30;1.35;;;18.00;50.20;;;;;;4857858;29;20101;-55
2020/12/28 15:35:24;;;;;;;5.55;1.48;;;18.10;50.20;;;;;;4856875;29;20626;-55
2020/12/28 15:37:50;;;;;;;6.22;1.73;;;18.00;50.10;;;;;;4855506;29;20057;-55
2020/12/28 15:40:17;;;;;;;7.47;1.67;;;18.00;50.10;;;;;;4855582;29;20073;-60
2020/12/28 15:42:44;;;;;;;5.45;1.20;;;18.00;50.10;;;;;;4857034;29;20049;-56
2020/12/28 15:45:12;;;;;;;3.53;1.05;;;18.00;50.10;;;;;;4856438;29;20399;-55
2020/12/28 15:47:38;;;;;;;3.97;1.70;;;18.00;50.00;;;;;;4859237;29;20049;-56
2020/12/28 15:50:05;;;;;;;4.50;0.80;;;18.00;50.00;;;;;;4841421;29;20045;-54
2020/12/28 15:52:33;;;;;;;4.55;1.13;;;18.00;50.00;;;;;;4855934;29;20586;-54
2020/12/28 15:54:59;;;;;;;1.45;0.60;;;18.00;49.90;;;;;;4855052;29;20049;-57
2020/12/28 15:57:26;;;;;;;2.47;1.40;;;18.00;49.90;;;;;;4855420;29;20050;-54
2020/12/28 15:59:53;;;;;;;2.20;0.98;;;18.00;49.90;;;;;;4857206;29;20053;-55
2020/12/28 16:02:21;;;;;;;3.92;1.30;;;18.00;49.80;;;;;;4856747;29;20854;-56
2020/12/28 16:04:47;;;;;;;3.10;1.10;;;18.00;49.80;;;;;;4854849;29;20065;-56
2020/12/28 16:07:14;;;;;;;3.65;0.85;;;18.00;49.70;;;;;;4855033;29;20045;-55
2020/12/28 16:09:41;;;;;;;4.50;1.45;;;18.10;49.80;;;;;;4855356;29;20106;-55
2020/12/28 16:12:07;;;;;;;4.57;0.90;;;18.00;50.40;;;;;;4855241;29;20222;-54
2020/12/28 16:14:34;;;;;;;2.65;0.80;;;18.00;49.70;;;;;;4856729;29;20065;-54
2020/12/28 16:17:06;;;;;;;2.55;0.73;;;18.00;49.80;;;;;;4855664;29;20542;-56
2020/12/28 16:19:33;;;;;;;1.67;0.50;;;18.00;49.80;;;;;;4860041;29;20049;-56
2020/12/28 16:21:59;;;;;;;1.98;0.65;;;18.00;49.80;;;;;;4857449;29;20046;-56
2020/12/28 16:24:26;;;;;;;2.95;0.57;;;18.00;49.60;;;;;;4859491;29;20053;-55
2020/12/28 16:26:53;;;;;;;1.20;0.65;;;18.00;49.70;;;;;;4846160;29;20105;-55
2020/12/28 16:29:29;;;;;;;2.25;1.42;;;18.00;49.70;;;;;;4861872;29;20046;-56
2020/12/28 16:31:57;;;;;;;1.50;0.43;;;18.00;49.70;;;;;;4859524;29;20493;-56
2020/12/28 16:34:25;;;;;;;0.85;0.20;;;18.00;49.70;;;;;;4863205;29;20048;-56
2020/12/28 16:36:57;;;;;;;1.67;0.40;;;18.00;49.70;;;;;;4860628;29;20045;-55
2020/12/28 16:39:23;;;;;;;2.05;0.77;;;18.00;49.80;;;;;;4850643;29;20091;-56
2020/12/28 16:41:50;;;;;;;1.70;0.65;;;18.00;49.80;;;;;;4860050;29;20058;-56
2020/12/28 16:44:18;;;;;;;1.58;0.68;;;18.00;49.80;;;;;;4862862;29;20052;-56
2020/12/28 16:46:46;;;;;;;2.13;0.88;;;18.00;49.70;;;;;;4859780;29;20137;-56
2020/12/28 16:49:12;;;;;;;0.63;0.38;;;18.00;49.80;;;;;;4859025;29;20048;-56
2020/12/28 16:51:40;;;;;;;1.30;0.43;;;18.00;49.70;;;;;;4856526;29;20056;-55
2020/12/28 16:54:06;;;;;;;1.85;0.45;;;18.00;49.70;;;;;;4861841;29;20506;-56
2020/12/28 16:56:33;;;;;;;1.60;0.50;;;18.00;49.70;;;;;;4861437;29;20037;-56
2020/12/28 16:59:00;;;;;;;0.82;0.82;;;18.00;49.70;;;;;;4859538;29;20473;-56
2020/12/28 17:01:29;;;;;;;0.40;0.40;;;18.00;49.70;;;;;;4861015;29;20045;-55
2020/12/28 17:03:55;;;;;;;0.73;0.40;;;18.00;49.70;;;;;;4843757;29;20057;-55
2020/12/28 17:06:22;;;;;;;1.58;0.32;;;18.00;49.70;;;;;;4856253;29;20106;-55
2020/12/28 17:08:50;;;;;;;1.73;0.73;;;18.00;49.70;;;;;;4859808;29;20145;-55
2020/12/28 17:11:17;;;;;;;1.30;0.65;;;18.00;49.70;;;;;;4847783;29;20049;-61
2020/12/28 17:13:44;;;;;;;0.95;0.40;;;18.00;49.70;;;;;;4849866;29;20058;-56
2020/12/28 17:16:11;;;;;;;2.15;0.52;;;18.00;50.00;;;;;;4857220;29;20250;-54
2020/12/28 17:18:38;;;;;;;2.58;0.57;;;18.00;50.40;;;;;;4855526;29;20060;-57
2020/12/28 17:21:09;;;;;;;1.17;0.40;;;18.00;50.80;;;;;;4852501;29;20101;-56
2020/12/28 17:23:35;;;;;;;0.77;0.30;;;18.00;51.00;;;;;;4856079;29;20522;-51
2020/12/28 17:26:07;;;;;;;1.63;0.70;;;18.00;51.40;;;;;;4859022;29;20057;-57
2020/12/28 17:28:34;;;;;;;4.95;1.50;;;18.00;51.90;;;;;;4852777;29;20049;-56
2020/12/28 17:31:00;;;;;;;14.70;4.60;;;18.00;52.20;;;;;;4854911;29;20045;-57
2020/12/28 17:33:27;;;;;;;9.07;3.63;;;18.00;52.50;;;;;;4849198;29;20057;-57
2020/12/28 17:35:54;;;;;;;9.88;3.97;;;18.00;52.80;;;;;;4850007;29;20121;-56
2020/12/28 17:38:21;;;;;;;7.55;3.42;;;18.00;53.00;;;;;;4838984;29;20062;-56
2020/12/28 17:40:48;;;;;;;12.60;4.57;;;18.00;53.10;;;;;;4853466;29;20049;-57
2020/12/28 17:43:15;;;;;;;16.48;3.78;;;18.00;53.20;;;;;;4838178;29;20061;-57
2020/12/28 17:45:42;;;;;;;7.10;2.85;;;18.00;53.30;;;;;;4852713;29;20586;-56
2020/12/28 17:48:09;;;;;;;14.20;3.13;;;18.00;53.40;;;;;;4850283;29;20073;-57
2020/12/28 17:50:35;;;;;;;7.55;2.92;;;18.00;53.50;;;;;;4856153;29;20581;-57
2020/12/28 17:53:02;;;;;;;11.02;3.80;;;18.00;53.60;;;;;;4855005;29;20054;-57
2020/12/28 17:55:29;;;;;;;16.05;3.38;;;18.00;53.70;;;;;;4851985;29;20475;-57
2020/12/28 17:57:55;;;;;;;8.02;2.95;;;18.00;53.90;;;;;;4853379;29;20134;-57
2020/12/28 18:00:23;;;;;;;6.60;2.92;;;18.00;54.00;;;;;;4857339;29;20425;-58
2020/12/28 18:02:49;;;;;;;10.98;3.53;;;18.00;54.10;;;;;;4859564;29;20072;-57
2020/12/28 18:05:16;;;;;;;5.97;3.58;;;18.10;54.30;;;;;;4854869;29;20052;-57
2020/12/28 18:07:43;;;;;;;11.00;2.92;;;18.10;54.40;;;;;;4858277;29;20081;-57
2020/12/28 18:10:09;;;;;;;14.40;3.50;;;18.10;55.10;;;;;;4860033;29;20069;-57
2020/12/28 18:12:37;;;;;;;14.88;2.47;;;18.00;54.90;;;;;;4860921;29;20050;-57
2020/12/28 18:15:05;;;;;;;13.93;3.33;;;18.10;55.50;;;;;;4858445;29;20518;-55
2020/12/28 18:17:32;;;;;;;12.00;2.63;;;18.10;55.80;;;;;;4861142;29;20050;-52
2020/12/28 18:19:59;;;;;;;11.07;2.08;;;18.10;55.90;;;;;;4855791;29;20050;-51
2020/12/28 18:22:26;;;;;;;8.68;2.28;;;18.10;56.00;;;;;;4855618;29;20042;-55
2020/12/28 18:24:54;;;;;;;11.10;3.13;;;18.10;56.10;;;;;;4854778;29;20128;-55
2020/12/28 18:27:21;;;;;;;6.60;1.90;;;18.10;56.40;;;;;;4859199;29;20045;-57
2020/12/28 18:29:48;;;;;;;11.18;2.42;;;18.10;56.40;;;;;;4860632;29;20525;-54
2020/12/28 18:32:16;;;;;;;9.38;2.17;;;18.10;56.50;;;;;;4856280;29;20085;-56
2020/12/28 18:34:44;;;;;;;7.00;2.25;;;18.00;56.40;;;;;;4861659;29;20504;-56
2020/12/28 18:37:10;;;;;;;4.55;2.60;;;18.10;56.50;;;;;;4861945;29;20200;-58
2020/12/28 18:39:37;;;;;;;13.10;2.22;;;18.10;56.60;;;;;;4859021;29;20046;-56
2020/12/28 18:42:06;;;;;;;12.90;2.13;;;18.10;56.50;;;;;;4860196;29;20081;-54
2020/12/28 18:44:33;;;;;;;9.57;2.22;;;18.10;56.30;;;;;;4852468;29;20048;-53
2020/12/28 18:46:59;;;;;;;6.30;1.55;;;18.10;56.50;;;;;;4841788;29;20053;-55
2020/12/28 18:49:28;;;;;;;6.57;1.48;;;18.10;56.50;;;;;;4854588;29;20085;-55
2020/12/28 18:51:56;;;;;;;8.15;2.20;;;18.10;56.60;;;;;;4840995;29;20050;-55
2020/12/28 18:54:26;;;;;;;8.60;2.10;;;18.10;56.70;;;;;;4852506;29;20155;-53
2020/12/28 18:56:56;;;;;;;9.30;2.30;;;18.00;56.50;;;;;;4857191;29;20053;-55
2020/12/28 18:59:23;;;;;;;3.60;1.25;;;18.10;56.60;;;;;;4854061;29;20046;-55
2020/12/28 19:01:50;;;;;;;7.65;1.92;;;18.10;56.50;;;;;;4858428;29;20064;-56
2020/12/28 19:04:16;;;;;;;5.07;1.92;;;18.10;56.60;;;;;;4853726;29;20843;-53
2020/12/28 19:06:49;;;;;;;6.55;1.92;;;18.10;57.50;;;;;;4855793;29;20113;-54
2020/12/28 19:09:17;;;;;;;8.55;2.17;;;18.10;58.20;;;;;;4853963;29;20092;-54
2020/12/28 19:11:44;;;;;;;2.83;0.80;;;18.10;58.60;;;;;;4857407;29;20509;-52
2020/12/28 19:14:10;;;;;;;7.65;1.08;;;18.10;58.60;;;;;;4855287;29;20088;-55
2020/12/28 19:16:41;;;;;;;6.68;1.13;;;18.10;58.80;;;;;;4856710;29;20046;-56
2020/12/28 19:19:08;;;;;;;5.93;0.98;;;18.10;59.20;;;;;;4857673;29;20080;-54
2020/12/28 19:21:35;;;;;;;3.42;0.73;;;18.10;59.00;;;;;;4840700;29;20038;-56
2020/12/28 19:24:01;;;;;;;6.50;1.00;;;18.10;59.10;;;;;;4854023;29;20427;-55
2020/12/28 19:26:29;;;;;;;3.13;0.90;;;18.10;59.20;;;;;;4855820;29;20046;-53
2020/12/28 19:28:56;;;;;;;4.82;1.10;;;18.10;59.30;;;;;;4858154;29;20073;-53
2020/12/28 19:31:22;;;;;;;4.60;0.90;;;18.10;59.60;;;;;;4853528;29;20050;-53
2020/12/28 19:33:49;;;;;;;8.48;0.82;;;18.10;59.70;;;;;;4850427;29;20053;-54
2020/12/28 19:36:17;;;;;;;6.43;0.80;;;18.10;60.00;;;;;;4850960;29;20128;-54
2020/12/28 19:38:44;;;;;;;9.20;1.67;;;18.10;60.40;;;;;;4859812;29;20104;-54
2020/12/28 19:41:11;;;;;;;4.00;1.38;;;18.10;60.70;;;;;;4853118;29;20042;-55
2020/12/28 19:43:39;;;;;;;10.00;1.23;;;18.10;60.80;;;;;;4850797;29;20538;-55
2020/12/28 19:46:08;;;;;;;6.40;1.13;;;18.10;61.20;;;;;;4856773;29;20044;-54
2020/12/28 19:48:35;;;;;;;15.82;1.35;;;18.10;62.00;;;;;;4851964;29;20061;-54
2020/12/28 19:51:03;;;;;;;1.88;0.47;;;18.10;62.10;;;;;;4856513;29;20540;-55
2020/12/28 19:53:30;;;;;;;9.50;0.95;;;18.10;62.40;;;;;;4858860;29;20336;-55
2020/12/28 19:55:56;;;;;;;5.43;0.98;;;18.10;62.50;;;;;;4857737;29;20049;-56
2020/12/28 19:58:24;;;;;;;19.52;1.10;;;18.10;62.50;;;;;;4854488;29;20053;-55
2020/12/28 20:00:53;;;;;;;4.28;1.02;;;18.10;62.70;;;;;;4852080;29;20042;-55
2020/12/28 20:03:19;;;;;;;4.43;1.05;;;18.10;63.30;;;;;;4854889;29;20468;-53
2020/12/28 20:05:46;;;;;;;4.40;0.80;;;18.10;62.70;;;;;;4858528;29;20117;-53
2020/12/28 20:08:13;;;;;;;3.28;0.60;;;18.20;62.70;;;;;;4856845;29;20061;-51
2020/12/28 20:10:40;;;;;;;5.88;1.08;;;18.20;62.70;;;;;;4852961;29;20053;-51
2020/12/28 20:13:06;;;;;;;7.63;0.98;;;18.10;62.70;;;;;;4857455;29;20053;-53
2020/12/28 20:15:33;;;;;;;3.15;1.08;;;18.10;62.50;;;;;;4858950;29;20599;-52
2020/12/28 20:18:01;;;;;;;12.43;1.98;;;18.10;62.60;;;;;;4862553;29;20049;-52
2020/12/28 20:20:28;;;;;;;3.25;1.08;;;18.20;62.70;;;;;;4855947;29;20049;-51
2020/12/28 20:22:54;;;;;;;7.32;0.50;;;18.20;62.90;;;;;;4860985;29;20132;-53
2020/12/28 20:25:21;;;;;;;3.35;0.73;;;18.10;63.00;;;;;;4857713;29;20235;-53
2020/12/28 20:27:48;;;;;;;3.40;1.05;;;18.20;62.80;;;;;;4850696;29;20045;-53
2020/12/28 20:30:15;;;;;;;3.97;0.65;;;18.20;62.70;;;;;;4847552;29;20057;-54
2020/12/28 20:32:45;;;;;;;4.50;0.35;;;18.20;62.80;;;;;;4863026;29;20053;-55
2020/12/28 20:35:14;;;;;;;3.83;0.47;;;18.20;62.80;;;;;;4858039;29;20049;-54
2020/12/28 20:37:41;;;;;;;5.82;0.50;;;18.20;62.70;;;;;;4859616;29;20103;-54
2020/12/28 20:40:08;;;;;;;2.75;0.55;;;18.20;62.50;;;;;;4840843;29;20137;-53
2020/12/28 20:42:43;;;;;;;5.82;0.65;;;18.20;62.50;;;;;;4855471;29;20137;-52
2020/12/28 20:45:10;;;;;;;3.67;0.70;;;18.20;62.50;;;;;;4852426;29;20073;-56
2020/12/28 20:47:38;;;;;;;3.95;0.22;;;18.20;62.40;;;;;;4857119;29;20080;-50
2020/12/28 20:50:07;;;;;;;4.32;0.32;;;18.20;62.20;;;;;;4851937;29;20060;-54
2020/12/28 20:52:35;;;;;;;2.15;0.30;;;18.10;62.00;;;;;;4852743;29;20052;-54
2020/12/28 20:55:04;;;;;;;6.28;0.40;;;18.20;62.00;;;;;;4852189;29;20538;-52
2020/12/28 20:57:30;;;;;;;3.25;0.30;;;18.10;62.10;;;;;;4853644;29;20128;-52
2020/12/28 20:59:57;;;;;;;5.95;0.25;;;18.10;62.00;;;;;;4858487;29;20057;-53
2020/12/28 21:02:23;;;;;;;3.83;0.65;;;18.10;61.90;;;;;;4857211;29;20052;-54
2020/12/28 21:04:50;;;;;;;3.03;0.40;;;18.10;62.00;;;;;;4863870;29;20481;-52
2020/12/28 21:07:18;;;;;;;5.47;0.28;;;18.10;61.80;;;;;;4855484;29;20066;-50
2020/12/28 21:09:45;;;;;;;0.70;0.20;;;18.10;61.80;;;;;;4855466;29;20100;-51
2020/12/28 21:12:12;;;;;;;1.40;0.30;;;18.10;61.60;;;;;;4854621;29;20461;-52
2020/12/28 21:14:38;;;;;;;1.67;0.45;;;18.10;61.60;;;;;;4855667;29;20053;-50
2020/12/28 21:17:05;;;;;;;2.47;0.73;;;18.10;61.50;;;;;;4858300;29;20054;-54
2020/12/28 21:19:32;;;;;;;1.42;0.55;;;18.10;61.50;;;;;;4861748;29;20073;-54
2020/12/28 21:21:59;;;;;;;3.72;1.08;;;18.10;62.00;;;;;;4857049;29;20045;-54
2020/12/28 21:24:25;;;;;;;3.70;0.63;;;18.10;61.30;;;;;;4850480;29;20518;-51
2020/12/28 21:26:53;;;;;;;4.03;0.30;;;18.10;61.40;;;;;;4852551;29;20053;-56
2020/12/28 21:29:20;;;;;;;3.65;0.20;;;18.10;61.50;;;;;;4856241;29;20049;-54
2020/12/28 21:31:51;;;;;;;1.52;0.28;;;18.10;61.50;;;;;;4852102;29;20045;-52
2020/12/28 21:34:18;;;;;;;0.57;0.20;;;18.10;61.50;;;;;;4855332;29;20150;-53
2020/12/28 21:36:45;;;;;;;0.77;0.20;;;18.10;61.30;;;;;;4855113;29;20069;-54
2020/12/28 21:39:12;;;;;;;1.23;0.30;;;18.10;61.20;;;;;;4854988;29;20092;-55
2020/12/28 21:41:38;;;;;;;3.70;0.35;;;18.10;61.20;;;;;;4843939;29;20049;-53
2020/12/28 21:44:06;;;;;;;3.00;0.77;;;18.00;61.00;;;;;;4854947;29;20136;-55
2020/12/28 21:46:32;;;;;;;1.17;0.38;;;18.00;60.90;;;;;;4859394;29;20076;-49
2020/12/28 21:48:59;;;;;;;2.90;0.30;;;18.00;60.90;;;;;;4857092;29;20101;-55
2020/12/28 21:51:26;;;;;;;3.05;0.10;;;18.00;61.10;;;;;;4854028;29;20459;-55
2020/12/28 21:53:52;;;;;;;10.68;0.25;;;18.00;61.00;;;;;;4856406;29;20144;-51
2020/12/28 21:56:20;;;;;;;0.82;0.30;;;18.00;61.30;;;;;;4855882;29;20053;-51
2020/12/28 21:58:46;;;;;;;1.60;0.10;;;18.00;61.40;;;;;;4856855;29;20054;-54
2020/12/28 22:01:14;;;;;;;1.00;0.30;;;18.00;61.50;;;;;;4838363;29;20052;-55
2020/12/28 22:03:41;;;;;;;3.65;0.10;;;18.00;61.70;;;;;;4854729;29;20045;-53
2020/12/28 22:06:08;;;;;;;0.75;0.22;;;18.00;61.80;;;;;;4849000;29;20060;-52
2020/12/28 22:08:35;;;;;;;1.95;0.22;;;18.00;61.50;;;;;;4854250;29;20077;-56
2020/12/28 22:11:01;;;;;;;1.63;0.40;;;18.00;61.70;;;;;;4856677;29;20050;-51
2020/12/28 22:13:31;;;;;;;0.93;0.22;;;18.00;61.60;;;;;;4851788;29;20429;-54
2020/12/28 22:15:58;;;;;;;1.08;0.10;;;18.00;61.50;;;;;;4851185;29;20045;-54
2020/12/28 22:18:25;;;;;;;0.52;0.30;;;18.00;61.70;;;;;;4837218;29;20056;-52
2020/12/28 22:20:52;;;;;;;2.78;0.28;;;17.90;61.30;;;;;;4855025;29;20087;-55
2020/12/28 22:23:19;;;;;;;0.73;0.30;;;17.90;61.40;;;;;;4855598;29;20426;-56
2020/12/28 22:25:45;;;;;;;0.55;0.13;;;17.90;61.20;;;;;;4853113;29;20606;-54
2020/12/28 22:28:12;;;;;;;0.30;0.10;;;17.90;61.40;;;;;;4855680;29;20156;-55
2020/12/28 22:30:39;;;;;;;0.38;0.13;;;18.00;61.20;;;;;;4851444;29;20046;-55
2020/12/28 22:33:05;;;;;;;0.50;0.30;;;17.90;61.20;;;;;;4849975;29;20054;-55
2020/12/28 22:35:33;;;;;;;1.13;0.20;;;17.90;61.20;;;;;;4850156;29;20054;-54
2020/12/28 22:37:59;;;;;;;2.92;0.15;;;17.90;61.10;;;;;;4856104;29;20046;-55
2020/12/28 22:40:27;;;;;;;0.63;0.22;;;17.90;61.20;;;;;;4850934;29;20060;-54
2020/12/28 22:42:53;;;;;;;1.15;0.52;;;17.90;61.30;;;;;;4849941;29;20462;-54
2020/12/28 22:45:20;;;;;;;5.57;1.00;;;17.90;61.70;;;;;;4855379;29;20403;-55
2020/12/28 22:47:46;;;;;;;2.55;0.63;;;17.90;61.00;;;;;;4864922;29;20542;-56
2020/12/28 22:50:13;;;;;;;8.60;0.65;;;17.90;61.10;;;;;;4841891;29;20140;-54
2020/12/28 22:52:40;;;;;;;3.05;0.30;;;17.90;61.30;;;;;;4845798;29;20046;-56
2020/12/28 22:55:07;;;;;;;2.28;0.77;;;17.90;61.30;;;;;;4858360;29;20049;-54
2020/12/28 22:57:34;;;;;;;3.55;0.47;;;17.90;61.40;;;;;;4853370;29;20052;-54
2020/12/28 23:00:01;;;;;;;2.95;0.57;;;17.90;61.60;;;;;;4842067;29;20056;-54
2020/12/28 23:02:30;;;;;;;1.45;0.28;;;17.90;61.80;;;;;;4859545;29;20494;-54
2020/12/28 23:04:56;;;;;;;1.55;0.47;;;17.90;61.40;;;;;;4856137;29;20050;-55
2020/12/28 23:07:23;;;;;;;2.65;0.30;;;17.90;61.30;;;;;;4855429;29;20046;-56
2020/12/28 23:09:51;;;;;;;0.88;0.55;;;17.90;61.40;;;;;;4857520;29;20143;-54
2020/12/28 23:12:17;;;;;;;1.65;0.30;;;17.90;61.60;;;;;;4852176;29;20048;-53
2020/12/28 23:14:44;;;;;;;2.83;0.20;;;17.90;61.40;;;;;;4855467;29;20060;-54
2020/12/28 23:17:11;;;;;;;3.70;0.40;;;17.90;61.40;;;;;;4860792;29;20439;-56
2020/12/28 23:19:38;;;;;;;0.85;0.10;;;17.90;61.20;;;;;;4858642;29;20463;-57
2020/12/28 23:22:05;;;;;;;0.68;0.60;;;17.90;61.70;;;;;;4857026;29;20073;-56
2020/12/28 23:24:31;;;;;;;6.63;0.40;;;17.80;61.00;;;;;;4854644;29;20057;-56
2020/12/28 23:27:00;;;;;;;1.52;0.43;;;17.80;61.10;;;;;;4857989;29;20049;-57
2020/12/28 23:29:26;;;;;;;1.10;0.20;;;17.80;61.10;;;;;;4849532;29;20045;-51
2020/12/28 23:31:53;;;;;;;3.60;0.20;;;17.80;61.30;;;;;;4864896;29;20045;-54
2020/12/28 23:34:20;;;;;;;0.32;0.10;;;17.80;61.40;;;;;;4860779;29;20049;-53
2020/12/28 23:36:46;;;;;;;4.38;0.35;;;17.80;61.40;;;;;;4866294;29;20380;-53
2020/12/28 23:39:13;;;;;;;2.30;0.10;;;17.80;61.30;;;;;;4866027;29;20053;-50
2020/12/28 23:41:40;;;;;;;1.00;0.30;;;17.90;61.40;;;;;;4868481;29;20057;-49
2020/12/28 23:44:08;;;;;;;0.20;0.10;;;17.80;61.30;;;;;;4866898;29;20049;-53
2020/12/28 23:46:36;;;;;;;0.80;0.28;;;17.90;61.40;;;;;;4844477;29;20069;-50
2020/12/28 23:49:05;;;;;;;1.92;0.20;;;17.90;61.40;;;;;;4861513;29;20112;-50